sensor_id;sensor_type;location;lat;lon;timestamp;P1;durP1;ratioP1;P2;durP2;ratioP2
51358;SDS011;37448;51.588;7.248;2023-04-15T00:01:02;6.95;;;3.97;;
51358;SDS011;37448;51.588;7.248;2023-04-15T00:03:03;5.95;;;4.32;;
51358;SDS011;37448;51.588;7.248;2023-04-15T00:05:04;5.85;;;3.65;;
51358;SDS011;37448;51.588;7.248;2023-04-15T00:07:05;5.15;;;3.35;;
51358;SDS011;37448;51.588;7.248;2023-04-15T00:09:05;8.43;;;4.57;;
51358;SDS011;37448;51.588;7.248;2023-04-15T00:11:06;4.80;;;3.80;;
51358;SDS011;37448;51.588;7.248;2023-04-15T00:13:06;6.50;;;3.80;;
51358;SDS011;37448;51.588;7.248;2023-04-15T00:15:07;7.50;;;3.65;;
51358;SDS011;37448;51.588;7.248;2023-04-15T00:17:08;7.38;;;4.10;;
51358;SDS011;37448;51.588;7.248;2023-04-15T00:19:08;8.00;;;4.53;;
51358;SDS011;37448;51.588;7.248;2023-04-15T00:21:08;8.27;;;5.07;;
51358;SDS011;37448;51.588;7.248;2023-04-15T00:23:09;6.00;;;3.80;;
51358;SDS011;37448;51.588;7.248;2023-04-15T00:25:09;6.60;;;3.88;;
51358;SDS011;37448;51.588;7.248;2023-04-15T00:27:10;10.02;;;4.57;;
51358;SDS011;37448;51.588;7.248;2023-04-15T00:29:11;8.95;;;4.45;;
51358;SDS011;37448;51.588;7.248;2023-04-15T00:31:11;6.03;;;4.80;;
51358;SDS011;37448;51.588;7.248;2023-04-15T00:33:12;7.97;;;4.32;;
51358;SDS011;37448;51.588;7.248;2023-04-15T00:35:13;6.35;;;4.00;;
51358;SDS011;37448;51.588;7.248;2023-04-15T00:37:13;8.43;;;4.75;;
51358;SDS011;37448;51.588;7.248;2023-04-15T00:39:14;6.22;;;4.25;;
51358;SDS011;37448;51.588;7.248;2023-04-15T00:41:17;8.98;;;4.70;;
51358;SDS011;37448;51.588;7.248;2023-04-15T00:43:18;7.82;;;5.00;;
51358;SDS011;37448;51.588;7.248;2023-04-15T00:45:18;6.47;;;4.43;;
51358;SDS011;37448;51.588;7.248;2023-04-15T00:47:19;6.70;;;4.38;;
51358;SDS011;37448;51.588;7.248;2023-04-15T00:49:20;6.07;;;4.20;;
51358;SDS011;37448;51.588;7.248;2023-04-15T00:51:22;7.10;;;4.57;;
51358;SDS011;37448;51.588;7.248;2023-04-15T00:53:22;9.48;;;4.57;;
51358;SDS011;37448;51.588;7.248;2023-04-15T00:55:22;9.27;;;4.72;;
51358;SDS011;37448;51.588;7.248;2023-04-15T00:57:23;9.07;;;4.60;;
51358;SDS011;37448;51.588;7.248;2023-04-15T00:59:23;6.18;;;4.07;;
51358;SDS011;37448;51.588;7.248;2023-04-15T01:01:24;6.00;;;4.22;;
51358;SDS011;37448;51.588;7.248;2023-04-15T01:03:25;7.95;;;4.82;;
51358;SDS011;37448;51.588;7.248;2023-04-15T01:05:26;7.93;;;4.35;;
51358;SDS011;37448;51.588;7.248;2023-04-15T01:07:27;7.95;;;4.95;;
51358;SDS011;37448;51.588;7.248;2023-04-15T01:09:27;8.85;;;4.53;;
51358;SDS011;37448;51.588;7.248;2023-04-15T01:11:28;9.32;;;4.80;;
51358;SDS011;37448;51.588;7.248;2023-04-15T01:13:29;8.00;;;4.35;;
51358;SDS011;37448;51.588;7.248;2023-04-15T01:15:30;7.20;;;4.47;;
51358;SDS011;37448;51.588;7.248;2023-04-15T01:17:31;8.15;;;4.68;;
51358;SDS011;37448;51.588;7.248;2023-04-15T01:19:32;6.20;;;4.18;;
51358;SDS011;37448;51.588;7.248;2023-04-15T01:21:32;6.35;;;4.60;;
51358;SDS011;37448;51.588;7.248;2023-04-15T01:23:38;7.78;;;4.53;;
51358;SDS011;37448;51.588;7.248;2023-04-15T01:25:39;6.13;;;3.95;;
51358;SDS011;37448;51.588;7.248;2023-04-15T01:27:41;5.70;;;4.40;;
51358;SDS011;37448;51.588;7.248;2023-04-15T01:29:41;9.88;;;4.82;;
51358;SDS011;37448;51.588;7.248;2023-04-15T01:31:49;6.40;;;4.60;;
51358;SDS011;37448;51.588;7.248;2023-04-15T01:33:53;8.20;;;5.05;;
51358;SDS011;37448;51.588;7.248;2023-04-15T01:35:54;7.63;;;5.22;;
51358;SDS011;37448;51.588;7.248;2023-04-15T01:38:05;8.10;;;4.97;;
51358;SDS011;37448;51.588;7.248;2023-04-15T01:40:06;7.88;;;4.85;;
51358;SDS011;37448;51.588;7.248;2023-04-15T01:42:09;11.38;;;4.78;;
51358;SDS011;37448;51.588;7.248;2023-04-15T01:44:10;8.35;;;4.68;;
51358;SDS011;37448;51.588;7.248;2023-04-15T01:46:13;7.22;;;4.70;;
51358;SDS011;37448;51.588;7.248;2023-04-15T01:48:13;6.57;;;4.72;;
51358;SDS011;37448;51.588;7.248;2023-04-15T01:50:14;9.85;;;6.53;;
51358;SDS011;37448;51.588;7.248;2023-04-15T01:52:14;7.35;;;5.93;;
51358;SDS011;37448;51.588;7.248;2023-04-15T01:54:15;7.82;;;4.78;;
51358;SDS011;37448;51.588;7.248;2023-04-15T01:56:15;7.70;;;5.30;;
51358;SDS011;37448;51.588;7.248;2023-04-15T01:58:17;7.53;;;4.93;;
51358;SDS011;37448;51.588;7.248;2023-04-15T02:00:18;10.07;;;4.82;;
51358;SDS011;37448;51.588;7.248;2023-04-15T02:02:18;8.93;;;5.03;;
51358;SDS011;37448;51.588;7.248;2023-04-15T02:04:19;7.50;;;5.18;;
51358;SDS011;37448;51.588;7.248;2023-04-15T02:06:19;11.25;;;6.03;;
51358;SDS011;37448;51.588;7.248;2023-04-15T02:08:21;12.70;;;6.47;;
51358;SDS011;37448;51.588;7.248;2023-04-15T02:10:22;9.52;;;5.65;;
51358;SDS011;37448;51.588;7.248;2023-04-15T02:12:22;8.07;;;5.28;;
51358;SDS011;37448;51.588;7.248;2023-04-15T02:14:23;9.02;;;5.05;;
51358;SDS011;37448;51.588;7.248;2023-04-15T02:16:23;8.30;;;4.68;;
51358;SDS011;37448;51.588;7.248;2023-04-15T02:18:23;9.50;;;5.03;;
51358;SDS011;37448;51.588;7.248;2023-04-15T02:20:24;10.98;;;5.45;;
51358;SDS011;37448;51.588;7.248;2023-04-15T02:22:25;7.35;;;5.18;;
51358;SDS011;37448;51.588;7.248;2023-04-15T02:24:26;8.40;;;5.22;;
51358;SDS011;37448;51.588;7.248;2023-04-15T02:26:27;6.53;;;4.10;;
51358;SDS011;37448;51.588;7.248;2023-04-15T02:28:31;7.15;;;5.15;;
51358;SDS011;37448;51.588;7.248;2023-04-15T02:30:31;11.10;;;6.18;;
51358;SDS011;37448;51.588;7.248;2023-04-15T02:32:35;8.82;;;5.25;;
51358;SDS011;37448;51.588;7.248;2023-04-15T02:34:37;8.70;;;4.82;;
51358;SDS011;37448;51.588;7.248;2023-04-15T02:36:41;9.20;;;5.20;;
51358;SDS011;37448;51.588;7.248;2023-04-15T02:38:42;8.05;;;5.40;;
51358;SDS011;37448;51.588;7.248;2023-04-15T02:40:42;9.20;;;6.22;;
51358;SDS011;37448;51.588;7.248;2023-04-15T02:42:43;9.65;;;5.43;;
51358;SDS011;37448;51.588;7.248;2023-04-15T02:44:46;7.07;;;4.60;;
51358;SDS011;37448;51.588;7.248;2023-04-15T02:46:46;8.38;;;4.72;;
51358;SDS011;37448;51.588;7.248;2023-04-15T02:48:49;10.02;;;5.60;;
51358;SDS011;37448;51.588;7.248;2023-04-15T02:50:50;10.27;;;5.05;;
51358;SDS011;37448;51.588;7.248;2023-04-15T02:52:50;8.85;;;5.53;;
51358;SDS011;37448;51.588;7.248;2023-04-15T02:54:51;9.10;;;5.57;;
51358;SDS011;37448;51.588;7.248;2023-04-15T02:56:52;9.15;;;5.88;;
51358;SDS011;37448;51.588;7.248;2023-04-15T02:58:55;9.25;;;5.70;;
51358;SDS011;37448;51.588;7.248;2023-04-15T03:00:56;8.95;;;5.40;;
51358;SDS011;37448;51.588;7.248;2023-04-15T03:02:57;9.30;;;5.30;;
51358;SDS011;37448;51.588;7.248;2023-04-15T03:05:02;8.45;;;6.18;;
51358;SDS011;37448;51.588;7.248;2023-04-15T03:07:05;11.60;;;6.47;;
51358;SDS011;37448;51.588;7.248;2023-04-15T03:09:06;9.02;;;5.90;;
51358;SDS011;37448;51.588;7.248;2023-04-15T03:11:08;9.00;;;6.05;;
51358;SDS011;37448;51.588;7.248;2023-04-15T03:13:10;11.77;;;7.25;;
51358;SDS011;37448;51.588;7.248;2023-04-15T03:15:11;10.70;;;6.68;;
51358;SDS011;37448;51.588;7.248;2023-04-15T03:17:16;12.68;;;6.55;;
51358;SDS011;37448;51.588;7.248;2023-04-15T03:19:18;9.93;;;5.97;;
51358;SDS011;37448;51.588;7.248;2023-04-15T03:21:18;8.43;;;5.25;;
51358;SDS011;37448;51.588;7.248;2023-04-15T03:23:21;11.45;;;6.40;;
51358;SDS011;37448;51.588;7.248;2023-04-15T03:25:23;10.40;;;6.57;;
51358;SDS011;37448;51.588;7.248;2023-04-15T03:27:23;12.20;;;6.05;;
51358;SDS011;37448;51.588;7.248;2023-04-15T03:29:24;10.30;;;5.47;;
51358;SDS011;37448;51.588;7.248;2023-04-15T03:31:25;10.60;;;5.47;;
51358;SDS011;37448;51.588;7.248;2023-04-15T03:33:26;10.02;;;6.05;;
51358;SDS011;37448;51.588;7.248;2023-04-15T03:35:26;10.27;;;5.93;;
51358;SDS011;37448;51.588;7.248;2023-04-15T03:37:26;7.70;;;5.90;;
51358;SDS011;37448;51.588;7.248;2023-04-15T03:39:27;10.60;;;5.95;;
51358;SDS011;37448;51.588;7.248;2023-04-15T03:41:27;15.57;;;7.10;;
51358;SDS011;37448;51.588;7.248;2023-04-15T03:43:28;9.93;;;6.20;;
51358;SDS011;37448;51.588;7.248;2023-04-15T03:45:28;9.98;;;6.18;;
51358;SDS011;37448;51.588;7.248;2023-04-15T03:47:29;13.75;;;6.20;;
51358;SDS011;37448;51.588;7.248;2023-04-15T03:49:30;9.90;;;6.18;;
51358;SDS011;37448;51.588;7.248;2023-04-15T03:51:30;9.60;;;6.05;;
51358;SDS011;37448;51.588;7.248;2023-04-15T03:53:31;11.48;;;6.43;;
51358;SDS011;37448;51.588;7.248;2023-04-15T03:55:31;9.90;;;6.60;;
51358;SDS011;37448;51.588;7.248;2023-04-15T03:57:31;9.82;;;6.15;;
51358;SDS011;37448;51.588;7.248;2023-04-15T03:59:37;12.10;;;5.93;;
51358;SDS011;37448;51.588;7.248;2023-04-15T04:01:37;10.20;;;6.35;;
51358;SDS011;37448;51.588;7.248;2023-04-15T04:03:37;10.10;;;6.47;;
51358;SDS011;37448;51.588;7.248;2023-04-15T04:05:37;11.15;;;6.50;;
51358;SDS011;37448;51.588;7.248;2023-04-15T04:07:40;10.32;;;6.47;;
51358;SDS011;37448;51.588;7.248;2023-04-15T04:09:40;10.93;;;7.18;;
51358;SDS011;37448;51.588;7.248;2023-04-15T04:11:41;10.40;;;6.90;;
51358;SDS011;37448;51.588;7.248;2023-04-15T04:13:41;9.90;;;6.40;;
51358;SDS011;37448;51.588;7.248;2023-04-15T04:15:41;11.13;;;7.22;;
51358;SDS011;37448;51.588;7.248;2023-04-15T04:17:42;9.68;;;6.43;;
51358;SDS011;37448;51.588;7.248;2023-04-15T04:19:42;8.32;;;5.68;;
51358;SDS011;37448;51.588;7.248;2023-04-15T04:21:42;10.23;;;7.05;;
51358;SDS011;37448;51.588;7.248;2023-04-15T04:23:43;12.10;;;6.90;;
51358;SDS011;37448;51.588;7.248;2023-04-15T04:25:43;8.50;;;6.80;;
51358;SDS011;37448;51.588;7.248;2023-04-15T04:27:43;10.40;;;6.55;;
51358;SDS011;37448;51.588;7.248;2023-04-15T04:29:44;12.68;;;6.93;;
51358;SDS011;37448;51.588;7.248;2023-04-15T04:31:46;13.63;;;8.13;;
51358;SDS011;37448;51.588;7.248;2023-04-15T04:33:47;11.57;;;6.03;;
51358;SDS011;37448;51.588;7.248;2023-04-15T04:35:48;9.68;;;6.35;;
51358;SDS011;37448;51.588;7.248;2023-04-15T04:37:48;11.88;;;7.35;;
51358;SDS011;37448;51.588;7.248;2023-04-15T04:39:48;10.73;;;7.55;;
51358;SDS011;37448;51.588;7.248;2023-04-15T04:41:49;11.18;;;7.15;;
51358;SDS011;37448;51.588;7.248;2023-04-15T04:43:51;11.57;;;6.55;;
51358;SDS011;37448;51.588;7.248;2023-04-15T04:45:51;13.20;;;8.05;;
51358;SDS011;37448;51.588;7.248;2023-04-15T04:47:51;13.80;;;7.63;;
51358;SDS011;37448;51.588;7.248;2023-04-15T04:49:52;12.35;;;7.53;;
51358;SDS011;37448;51.588;7.248;2023-04-15T04:51:52;14.15;;;8.35;;
51358;SDS011;37448;51.588;7.248;2023-04-15T04:53:53;12.20;;;7.18;;
51358;SDS011;37448;51.588;7.248;2023-04-15T04:55:53;12.38;;;7.53;;
51358;SDS011;37448;51.588;7.248;2023-04-15T04:57:53;16.40;;;7.47;;
51358;SDS011;37448;51.588;7.248;2023-04-15T04:59:54;14.52;;;7.22;;
51358;SDS011;37448;51.588;7.248;2023-04-15T05:01:54;12.57;;;7.68;;
51358;SDS011;37448;51.588;7.248;2023-04-15T05:03:55;11.25;;;7.43;;
51358;SDS011;37448;51.588;7.248;2023-04-15T05:05:55;14.13;;;7.85;;
51358;SDS011;37448;51.588;7.248;2023-04-15T05:07:56;14.52;;;8.13;;
51358;SDS011;37448;51.588;7.248;2023-04-15T05:09:56;15.30;;;8.20;;
51358;SDS011;37448;51.588;7.248;2023-04-15T05:11:56;13.05;;;8.07;;
51358;SDS011;37448;51.588;7.248;2023-04-15T05:13:57;11.55;;;7.63;;
51358;SDS011;37448;51.588;7.248;2023-04-15T05:15:58;12.63;;;8.25;;
51358;SDS011;37448;51.588;7.248;2023-04-15T05:17:59;12.75;;;7.55;;
51358;SDS011;37448;51.588;7.248;2023-04-15T05:20:00;12.02;;;7.47;;
51358;SDS011;37448;51.588;7.248;2023-04-15T05:22:01;14.70;;;8.30;;
51358;SDS011;37448;51.588;7.248;2023-04-15T05:24:01;10.80;;;6.95;;
51358;SDS011;37448;51.588;7.248;2023-04-15T05:26:02;13.20;;;7.40;;
51358;SDS011;37448;51.588;7.248;2023-04-15T05:28:03;14.18;;;8.60;;
51358;SDS011;37448;51.588;7.248;2023-04-15T05:30:03;11.75;;;7.55;;
51358;SDS011;37448;51.588;7.248;2023-04-15T05:32:04;13.43;;;7.95;;
51358;SDS011;37448;51.588;7.248;2023-04-15T05:34:05;11.02;;;7.40;;
51358;SDS011;37448;51.588;7.248;2023-04-15T05:36:06;14.32;;;8.20;;
51358;SDS011;37448;51.588;7.248;2023-04-15T05:38:06;12.95;;;8.52;;
51358;SDS011;37448;51.588;7.248;2023-04-15T05:40:07;13.60;;;8.95;;
51358;SDS011;37448;51.588;7.248;2023-04-15T05:42:09;15.80;;;8.70;;
51358;SDS011;37448;51.588;7.248;2023-04-15T05:44:10;14.57;;;8.10;;
51358;SDS011;37448;51.588;7.248;2023-04-15T05:46:10;13.80;;;8.80;;
51358;SDS011;37448;51.588;7.248;2023-04-15T05:48:11;17.17;;;8.57;;
51358;SDS011;37448;51.588;7.248;2023-04-15T05:50:11;14.63;;;8.02;;
51358;SDS011;37448;51.588;7.248;2023-04-15T05:52:12;11.93;;;7.43;;
51358;SDS011;37448;51.588;7.248;2023-04-15T05:54:12;12.38;;;8.07;;
51358;SDS011;37448;51.588;7.248;2023-04-15T05:56:12;13.23;;;7.78;;
51358;SDS011;37448;51.588;7.248;2023-04-15T05:58:13;13.98;;;7.97;;
51358;SDS011;37448;51.588;7.248;2023-04-15T06:00:13;11.75;;;7.90;;
51358;SDS011;37448;51.588;7.248;2023-04-15T06:02:14;14.75;;;9.15;;
51358;SDS011;37448;51.588;7.248;2023-04-15T06:04:15;13.93;;;8.02;;
51358;SDS011;37448;51.588;7.248;2023-04-15T06:06:16;12.70;;;7.65;;
51358;SDS011;37448;51.588;7.248;2023-04-15T06:08:16;15.50;;;8.30;;
51358;SDS011;37448;51.588;7.248;2023-04-15T06:10:16;12.48;;;7.22;;
51358;SDS011;37448;51.588;7.248;2023-04-15T06:12:17;12.35;;;7.88;;
51358;SDS011;37448;51.588;7.248;2023-04-15T06:14:17;11.63;;;8.02;;
51358;SDS011;37448;51.588;7.248;2023-04-15T06:16:17;12.30;;;7.95;;
51358;SDS011;37448;51.588;7.248;2023-04-15T06:18:18;12.68;;;8.30;;
51358;SDS011;37448;51.588;7.248;2023-04-15T06:20:19;12.57;;;8.27;;
51358;SDS011;37448;51.588;7.248;2023-04-15T06:22:19;12.77;;;8.05;;
51358;SDS011;37448;51.588;7.248;2023-04-15T06:24:21;13.05;;;8.05;;
51358;SDS011;37448;51.588;7.248;2023-04-15T06:26:21;10.85;;;7.72;;
51358;SDS011;37448;51.588;7.248;2023-04-15T06:28:21;11.68;;;7.78;;
51358;SDS011;37448;51.588;7.248;2023-04-15T06:30:22;12.85;;;8.65;;
51358;SDS011;37448;51.588;7.248;2023-04-15T06:32:22;12.85;;;7.65;;
51358;SDS011;37448;51.588;7.248;2023-04-15T06:34:23;12.38;;;7.80;;
51358;SDS011;37448;51.588;7.248;2023-04-15T06:36:23;13.82;;;8.32;;
51358;SDS011;37448;51.588;7.248;2023-04-15T06:38:23;14.40;;;8.32;;
51358;SDS011;37448;51.588;7.248;2023-04-15T06:40:24;14.30;;;8.85;;
51358;SDS011;37448;51.588;7.248;2023-04-15T06:42:25;12.13;;;7.50;;
51358;SDS011;37448;51.588;7.248;2023-04-15T06:44:25;14.48;;;8.50;;
51358;SDS011;37448;51.588;7.248;2023-04-15T06:46:25;13.85;;;8.77;;
51358;SDS011;37448;51.588;7.248;2023-04-15T06:48:26;11.68;;;7.90;;
51358;SDS011;37448;51.588;7.248;2023-04-15T06:50:26;12.55;;;7.35;;
51358;SDS011;37448;51.588;7.248;2023-04-15T06:52:26;12.65;;;7.55;;
51358;SDS011;37448;51.588;7.248;2023-04-15T06:54:27;12.88;;;8.25;;
51358;SDS011;37448;51.588;7.248;2023-04-15T06:56:27;13.20;;;7.85;;
51358;SDS011;37448;51.588;7.248;2023-04-15T06:58:28;13.02;;;8.38;;
51358;SDS011;37448;51.588;7.248;2023-04-15T07:00:28;12.93;;;7.53;;
51358;SDS011;37448;51.588;7.248;2023-04-15T07:02:28;12.10;;;6.75;;
51358;SDS011;37448;51.588;7.248;2023-04-15T07:04:29;10.68;;;7.03;;
51358;SDS011;37448;51.588;7.248;2023-04-15T07:06:29;9.60;;;6.68;;
51358;SDS011;37448;51.588;7.248;2023-04-15T07:08:29;11.02;;;7.75;;
51358;SDS011;37448;51.588;7.248;2023-04-15T07:10:30;13.98;;;7.93;;
51358;SDS011;37448;51.588;7.248;2023-04-15T07:12:30;14.73;;;8.10;;
51358;SDS011;37448;51.588;7.248;2023-04-15T07:14:30;12.70;;;7.85;;
51358;SDS011;37448;51.588;7.248;2023-04-15T07:16:31;10.88;;;6.50;;
51358;SDS011;37448;51.588;7.248;2023-04-15T07:18:31;14.20;;;8.35;;
51358;SDS011;37448;51.588;7.248;2023-04-15T07:20:32;10.15;;;6.57;;
51358;SDS011;37448;51.588;7.248;2023-04-15T07:22:32;12.32;;;7.72;;
51358;SDS011;37448;51.588;7.248;2023-04-15T07:24:33;12.98;;;7.80;;
51358;SDS011;37448;51.588;7.248;2023-04-15T07:26:33;10.90;;;6.72;;
51358;SDS011;37448;51.588;7.248;2023-04-15T07:28:33;12.20;;;7.55;;
51358;SDS011;37448;51.588;7.248;2023-04-15T07:30:34;13.35;;;8.07;;
51358;SDS011;37448;51.588;7.248;2023-04-15T07:32:35;12.63;;;7.80;;
51358;SDS011;37448;51.588;7.248;2023-04-15T07:34:35;10.55;;;7.63;;
51358;SDS011;37448;51.588;7.248;2023-04-15T07:36:36;11.98;;;6.90;;
51358;SDS011;37448;51.588;7.248;2023-04-15T07:38:37;13.50;;;6.47;;
51358;SDS011;37448;51.588;7.248;2023-04-15T07:40:37;11.68;;;6.68;;
51358;SDS011;37448;51.588;7.248;2023-04-15T07:42:38;12.07;;;6.63;;
51358;SDS011;37448;51.588;7.248;2023-04-15T07:44:38;11.60;;;6.43;;
51358;SDS011;37448;51.588;7.248;2023-04-15T07:46:39;11.52;;;6.90;;
51358;SDS011;37448;51.588;7.248;2023-04-15T07:48:39;10.18;;;6.75;;
51358;SDS011;37448;51.588;7.248;2023-04-15T07:50:39;11.88;;;7.28;;
51358;SDS011;37448;51.588;7.248;2023-04-15T07:52:40;11.52;;;6.40;;
51358;SDS011;37448;51.588;7.248;2023-04-15T07:54:41;12.90;;;6.43;;
51358;SDS011;37448;51.588;7.248;2023-04-15T07:56:41;12.50;;;6.43;;
51358;SDS011;37448;51.588;7.248;2023-04-15T07:58:42;14.18;;;6.68;;
51358;SDS011;37448;51.588;7.248;2023-04-15T08:00:42;10.32;;;6.43;;
51358;SDS011;37448;51.588;7.248;2023-04-15T08:02:43;9.27;;;5.47;;
51358;SDS011;37448;51.588;7.248;2023-04-15T08:04:45;8.48;;;5.30;;
51358;SDS011;37448;51.588;7.248;2023-04-15T08:06:46;10.77;;;5.97;;
51358;SDS011;37448;51.588;7.248;2023-04-15T08:08:48;10.38;;;5.35;;
51358;SDS011;37448;51.588;7.248;2023-04-15T08:10:49;8.82;;;5.63;;
51358;SDS011;37448;51.588;7.248;2023-04-15T08:12:49;8.93;;;5.05;;
51358;SDS011;37448;51.588;7.248;2023-04-15T08:14:53;8.73;;;5.65;;
51358;SDS011;37448;51.588;7.248;2023-04-15T08:16:54;8.68;;;5.22;;
51358;SDS011;37448;51.588;7.248;2023-04-15T08:18:54;9.48;;;4.85;;
51358;SDS011;37448;51.588;7.248;2023-04-15T08:20:55;10.15;;;5.60;;
51358;SDS011;37448;51.588;7.248;2023-04-15T08:22:56;7.82;;;4.90;;
51358;SDS011;37448;51.588;7.248;2023-04-15T08:24:57;8.90;;;5.05;;
51358;SDS011;37448;51.588;7.248;2023-04-15T08:26:58;8.75;;;4.97;;
51358;SDS011;37448;51.588;7.248;2023-04-15T08:29:01;7.80;;;5.40;;
51358;SDS011;37448;51.588;7.248;2023-04-15T08:31:01;6.85;;;3.88;;
51358;SDS011;37448;51.588;7.248;2023-04-15T08:33:01;7.78;;;4.30;;
51358;SDS011;37448;51.588;7.248;2023-04-15T08:35:02;4.68;;;3.85;;
51358;SDS011;37448;51.588;7.248;2023-04-15T08:37:03;6.47;;;3.70;;
51358;SDS011;37448;51.588;7.248;2023-04-15T08:39:03;6.53;;;4.03;;
51358;SDS011;37448;51.588;7.248;2023-04-15T08:41:08;6.82;;;3.97;;
51358;SDS011;37448;51.588;7.248;2023-04-15T08:43:23;5.95;;;3.45;;
51358;SDS011;37448;51.588;7.248;2023-04-15T08:45:27;5.90;;;3.78;;
51358;SDS011;37448;51.588;7.248;2023-04-15T08:47:29;5.40;;;3.00;;
51358;SDS011;37448;51.588;7.248;2023-04-15T08:49:31;4.70;;;3.58;;
51358;SDS011;37448;51.588;7.248;2023-04-15T08:51:32;6.07;;;3.58;;
51358;SDS011;37448;51.588;7.248;2023-04-15T08:53:33;5.75;;;3.67;;
51358;SDS011;37448;51.588;7.248;2023-04-15T08:55:33;4.85;;;2.80;;
51358;SDS011;37448;51.588;7.248;2023-04-15T08:57:35;5.45;;;3.38;;
51358;SDS011;37448;51.588;7.248;2023-04-15T08:59:37;4.43;;;3.17;;
51358;SDS011;37448;51.588;7.248;2023-04-15T09:01:39;5.35;;;3.60;;
51358;SDS011;37448;51.588;7.248;2023-04-15T09:03:40;4.13;;;3.30;;
51358;SDS011;37448;51.588;7.248;2023-04-15T09:05:41;5.15;;;3.60;;
51358;SDS011;37448;51.588;7.248;2023-04-15T09:07:42;5.28;;;2.95;;
51358;SDS011;37448;51.588;7.248;2023-04-15T09:09:42;6.63;;;3.95;;
51358;SDS011;37448;51.588;7.248;2023-04-15T09:11:43;6.05;;;4.43;;
51358;SDS011;37448;51.588;7.248;2023-04-15T09:13:43;6.03;;;4.13;;
51358;SDS011;37448;51.588;7.248;2023-04-15T09:15:44;5.38;;;3.85;;
51358;SDS011;37448;51.588;7.248;2023-04-15T09:17:44;6.30;;;4.40;;
51358;SDS011;37448;51.588;7.248;2023-04-15T09:19:45;6.65;;;4.05;;
51358;SDS011;37448;51.588;7.248;2023-04-15T09:21:46;7.13;;;4.60;;
51358;SDS011;37448;51.588;7.248;2023-04-15T09:23:57;8.15;;;4.60;;
51358;SDS011;37448;51.588;7.248;2023-04-15T09:25:59;6.82;;;5.35;;
51358;SDS011;37448;51.588;7.248;2023-04-15T09:28:03;6.85;;;5.18;;
51358;SDS011;37448;51.588;7.248;2023-04-15T09:30:06;7.00;;;4.18;;
51358;SDS011;37448;51.588;7.248;2023-04-15T09:32:08;6.93;;;4.65;;
51358;SDS011;37448;51.588;7.248;2023-04-15T09:34:10;6.95;;;4.28;;
51358;SDS011;37448;51.588;7.248;2023-04-15T09:36:10;8.63;;;4.50;;
51358;SDS011;37448;51.588;7.248;2023-04-15T09:38:11;6.63;;;5.18;;
51358;SDS011;37448;51.588;7.248;2023-04-15T09:40:12;8.27;;;4.55;;
51358;SDS011;37448;51.588;7.248;2023-04-15T09:42:12;7.40;;;5.13;;
51358;SDS011;37448;51.588;7.248;2023-04-15T09:44:21;8.05;;;4.35;;
51358;SDS011;37448;51.588;7.248;2023-04-15T09:46:39;7.70;;;4.22;;
51358;SDS011;37448;51.588;7.248;2023-04-15T09:48:41;6.45;;;3.83;;
51358;SDS011;37448;51.588;7.248;2023-04-15T09:50:42;6.63;;;4.10;;
51358;SDS011;37448;51.588;7.248;2023-04-15T09:52:43;6.65;;;4.07;;
51358;SDS011;37448;51.588;7.248;2023-04-15T09:54:43;6.88;;;4.38;;
51358;SDS011;37448;51.588;7.248;2023-04-15T09:56:44;5.57;;;3.60;;
51358;SDS011;37448;51.588;7.248;2023-04-15T09:58:44;9.93;;;4.55;;
51358;SDS011;37448;51.588;7.248;2023-04-15T10:00:49;4.70;;;3.47;;
51358;SDS011;37448;51.588;7.248;2023-04-15T10:02:50;7.38;;;3.50;;
51358;SDS011;37448;51.588;7.248;2023-04-15T10:04:51;6.47;;;4.05;;
51358;SDS011;37448;51.588;7.248;2023-04-15T10:06:51;7.00;;;4.88;;
51358;SDS011;37448;51.588;7.248;2023-04-15T10:08:53;9.35;;;4.20;;
51358;SDS011;37448;51.588;7.248;2023-04-15T10:10:54;8.48;;;4.20;;
51358;SDS011;37448;51.588;7.248;2023-04-15T10:12:55;6.03;;;3.35;;
51358;SDS011;37448;51.588;7.248;2023-04-15T10:14:57;4.75;;;3.05;;
51358;SDS011;37448;51.588;7.248;2023-04-15T10:17:00;5.63;;;3.40;;
51358;SDS011;37448;51.588;7.248;2023-04-15T10:19:02;6.03;;;4.03;;
51358;SDS011;37448;51.588;7.248;2023-04-15T10:21:04;5.60;;;3.70;;
51358;SDS011;37448;51.588;7.248;2023-04-15T10:23:05;5.82;;;3.47;;
51358;SDS011;37448;51.588;7.248;2023-04-15T10:25:07;6.63;;;3.72;;
51358;SDS011;37448;51.588;7.248;2023-04-15T10:27:08;9.18;;;3.65;;
51358;SDS011;37448;51.588;7.248;2023-04-15T10:29:10;6.55;;;4.10;;
51358;SDS011;37448;51.588;7.248;2023-04-15T10:31:11;5.97;;;4.13;;
51358;SDS011;37448;51.588;7.248;2023-04-15T10:33:22;5.72;;;3.88;;
51358;SDS011;37448;51.588;7.248;2023-04-15T10:35:23;6.22;;;3.97;;
51358;SDS011;37448;51.588;7.248;2023-04-15T10:37:32;5.93;;;4.10;;
51358;SDS011;37448;51.588;7.248;2023-04-15T10:39:38;5.95;;;3.78;;
51358;SDS011;37448;51.588;7.248;2023-04-15T10:41:41;5.82;;;3.63;;
51358;SDS011;37448;51.588;7.248;2023-04-15T10:43:48;5.35;;;3.72;;
51358;SDS011;37448;51.588;7.248;2023-04-15T10:45:49;6.60;;;4.07;;
51358;SDS011;37448;51.588;7.248;2023-04-15T10:47:56;5.43;;;3.55;;
51358;SDS011;37448;51.588;7.248;2023-04-15T10:49:57;5.88;;;3.70;;
51358;SDS011;37448;51.588;7.248;2023-04-15T10:52:00;7.13;;;4.43;;
51358;SDS011;37448;51.588;7.248;2023-04-15T10:54:01;6.90;;;3.92;;
51358;SDS011;37448;51.588;7.248;2023-04-15T10:56:01;6.25;;;4.40;;
51358;SDS011;37448;51.588;7.248;2023-04-15T10:58:03;7.28;;;3.88;;
51358;SDS011;37448;51.588;7.248;2023-04-15T11:02:08;6.20;;;4.45;;
51358;SDS011;37448;51.588;7.248;2023-04-15T11:04:12;6.75;;;4.60;;
51358;SDS011;37448;51.588;7.248;2023-04-15T11:06:13;6.70;;;5.18;;
51358;SDS011;37448;51.588;7.248;2023-04-15T11:08:14;6.32;;;4.22;;
51358;SDS011;37448;51.588;7.248;2023-04-15T11:12:32;6.45;;;4.18;;
51358;SDS011;37448;51.588;7.248;2023-04-15T11:16:42;5.70;;;4.28;;
51358;SDS011;37448;51.588;7.248;2023-04-15T11:18:52;6.47;;;4.00;;
51358;SDS011;37448;51.588;7.248;2023-04-15T11:20:57;6.75;;;4.07;;
51358;SDS011;37448;51.588;7.248;2023-04-15T11:22:59;5.95;;;4.32;;
51358;SDS011;37448;51.588;7.248;2023-04-15T11:24:59;7.45;;;4.15;;
51358;SDS011;37448;51.588;7.248;2023-04-15T11:27:00;5.45;;;3.65;;
51358;SDS011;37448;51.588;7.248;2023-04-15T11:29:01;5.78;;;3.65;;
51358;SDS011;37448;51.588;7.248;2023-04-15T11:31:05;5.75;;;4.03;;
51358;SDS011;37448;51.588;7.248;2023-04-15T11:33:12;7.03;;;3.92;;
51358;SDS011;37448;51.588;7.248;2023-04-15T11:35:13;6.35;;;4.25;;
51358;SDS011;37448;51.588;7.248;2023-04-15T11:37:13;7.47;;;4.38;;
51358;SDS011;37448;51.588;7.248;2023-04-15T11:39:13;6.30;;;4.00;;
51358;SDS011;37448;51.588;7.248;2023-04-15T11:41:18;6.07;;;4.22;;
51358;SDS011;37448;51.588;7.248;2023-04-15T11:43:21;6.03;;;4.03;;
51358;SDS011;37448;51.588;7.248;2023-04-15T11:45:22;6.93;;;4.20;;
51358;SDS011;37448;51.588;7.248;2023-04-15T11:47:22;8.88;;;4.88;;
51358;SDS011;37448;51.588;7.248;2023-04-15T11:49:30;8.77;;;3.75;;
51358;SDS011;37448;51.588;7.248;2023-04-15T11:51:33;8.65;;;4.45;;
51358;SDS011;37448;51.588;7.248;2023-04-15T11:53:35;6.05;;;3.65;;
51358;SDS011;37448;51.588;7.248;2023-04-15T11:55:47;7.88;;;4.03;;
51358;SDS011;37448;51.588;7.248;2023-04-15T11:57:50;7.75;;;4.53;;
51358;SDS011;37448;51.588;7.248;2023-04-15T12:00:04;6.78;;;3.80;;
51358;SDS011;37448;51.588;7.248;2023-04-15T12:02:12;6.60;;;4.68;;
51358;SDS011;37448;51.588;7.248;2023-04-15T12:04:14;5.40;;;3.67;;
51358;SDS011;37448;51.588;7.248;2023-04-15T12:06:23;5.93;;;3.65;;
51358;SDS011;37448;51.588;7.248;2023-04-15T12:08:24;7.68;;;4.78;;
51358;SDS011;37448;51.588;7.248;2023-04-15T12:10:24;4.68;;;3.58;;
51358;SDS011;37448;51.588;7.248;2023-04-15T12:12:27;5.65;;;3.50;;
51358;SDS011;37448;51.588;7.248;2023-04-15T12:14:31;4.68;;;3.25;;